sensor_id;sensor_type;location;lat;lon;timestamp;pressure;altitude;pressure_sealevel;temperature;humidity
76858;BME280;65830;0.000;0.000;2023-05-19T00:00:34;99792.75;;;14.75;60.72
76858;BME280;65830;0.000;0.000;2023-05-19T00:03:02;99795.75;;;14.72;61.02
76858;BME280;65830;0.000;0.000;2023-05-19T00:05:27;99791.22;;;14.72;60.84
76858;BME280;65830;0.000;0.000;2023-05-19T00:07:56;99780.22;;;14.75;60.49
76858;BME280;65830;0.000;0.000;2023-05-19T00:10:22;99777.41;;;14.77;60.79
76858;BME280;65830;0.000;0.000;2023-05-19T00:12:48;99779.56;;;14.73;60.68
76858;BME280;65830;0.000;0.000;2023-05-19T00:15:14;99779.56;;;14.73;60.43
76858;BME280;65830;0.000;0.000;2023-05-19T00:17:39;99775.56;;;14.77;60.57
76858;BME280;65830;0.000;0.000;2023-05-19T00:20:06;99771.19;;;14.76;60.58
76858;BME280;65830;0.000;0.000;2023-05-19T00:22:32;99771.72;;;14.80;60.23
76858;BME280;65830;0.000;0.000;2023-05-19T00:24:58;99772.88;;;14.77;60.19
76858;BME280;65830;0.000;0.000;2023-05-19T00:27:23;99776.38;;;14.78;60.17
76858;BME280;65830;0.000;0.000;2023-05-19T00:29:49;99784.41;;;14.78;60.20
76858;BME280;65830;0.000;0.000;2023-05-19T00:32:14;99777.41;;;14.77;60.07
76858;BME280;65830;0.000;0.000;2023-05-19T00:34:40;99775.41;;;14.79;60.12
76858;BME280;65830;0.000;0.000;2023-05-19T00:37:06;99772.38;;;14.82;59.97
76858;BME280;65830;0.000;0.000;2023-05-19T00:39:31;99764.38;;;14.82;59.68
76858;BME280;65830;0.000;0.000;2023-05-19T00:41:57;99767.72;;;14.84;59.87
76858;BME280;65830;0.000;0.000;2023-05-19T00:44:22;99766.06;;;14.83;59.64
76858;BME280;65830;0.000;0.000;2023-05-19T00:46:48;99766.88;;;14.83;59.46
76858;BME280;65830;0.000;0.000;2023-05-19T00:49:13;99762.72;;;14.81;59.79
76858;BME280;65830;0.000;0.000;2023-05-19T00:51:39;99763.69;;;14.80;59.69
76858;BME280;65830;0.000;0.000;2023-05-19T00:54:05;99758.34;;;14.80;59.72
76858;BME280;65830;0.000;0.000;2023-05-19T00:56:31;99765.38;;;14.81;59.53
76858;BME280;65830;0.000;0.000;2023-05-19T00:58:58;99762.72;;;14.81;59.62
76858;BME280;65830;0.000;0.000;2023-05-19T01:01:25;99763.84;;;14.78;59.88
76858;BME280;65830;0.000;0.000;2023-05-19T01:03:51;99757.53;;;14.79;59.87
76858;BME280;65830;0.000;0.000;2023-05-19T01:06:16;99759.38;;;14.79;59.70
76858;BME280;65830;0.000;0.000;2023-05-19T01:08:43;99765.84;;;14.76;59.71
76858;BME280;65830;0.000;0.000;2023-05-19T01:11:09;99758.03;;;14.75;59.77
76858;BME280;65830;0.000;0.000;2023-05-19T01:13:35;99756.19;;;14.75;59.55
76858;BME280;65830;0.000;0.000;2023-05-19T01:16:10;99759.00;;;14.74;59.40
76858;BME280;65830;0.000;0.000;2023-05-19T01:31:45;99758.34;;;14.72;59.74
76858;BME280;65830;0.000;0.000;2023-05-19T01:34:15;99765.84;;;14.76;59.42
76858;BME280;65830;0.000;0.000;2023-05-19T01:36:41;99760.84;;;14.73;59.21
76858;BME280;65830;0.000;0.000;2023-05-19T01:39:09;99757.19;;;14.74;59.19
76858;BME280;65830;0.000;0.000;2023-05-19T01:41:36;99760.19;;;14.79;59.22
76858;BME280;65830;0.000;0.000;2023-05-19T01:44:02;99759.69;;;14.76;59.17
76858;BME280;65830;0.000;0.000;2023-05-19T01:46:28;99760.50;;;14.76;59.22
76858;BME280;65830;0.000;0.000;2023-05-19T01:48:53;99771.88;;;14.78;59.09
76858;BME280;65830;0.000;0.000;2023-05-19T01:51:19;99755.19;;;14.76;59.11
76858;BME280;65830;0.000;0.000;2023-05-19T01:53:44;99757.84;;;14.76;58.97
76858;BME280;65830;0.000;0.000;2023-05-19T01:56:10;99777.41;;;14.77;59.04
76858;BME280;65830;0.000;0.000;2023-05-19T01:58:47;99766.72;;;14.77;58.92
76858;BME280;65830;0.000;0.000;2023-05-19T02:09:11;99768.72;;;14.83;58.16
76858;BME280;65830;0.000;0.000;2023-05-19T02:11:56;99772.22;;;14.83;58.35
76858;BME280;65830;0.000;0.000;2023-05-19T02:16:54;99771.41;;;14.83;58.43
76858;BME280;65830;0.000;0.000;2023-05-19T02:19:22;99777.56;;;14.83;58.16
76858;BME280;65830;0.000;0.000;2023-05-19T02:21:48;99778.41;;;14.84;58.67
76858;BME280;65830;0.000;0.000;2023-05-19T02:24:13;99780.41;;;14.82;58.27
76858;BME280;65830;0.000;0.000;2023-05-19T02:26:39;99776.75;;;14.83;58.28
76858;BME280;65830;0.000;0.000;2023-05-19T02:29:04;99785.91;;;14.80;58.53
76858;BME280;65830;0.000;0.000;2023-05-19T02:31:30;99784.41;;;14.78;58.73
76858;BME280;65830;0.000;0.000;2023-05-19T02:33:55;99777.41;;;14.77;58.79
76858;BME280;65830;0.000;0.000;2023-05-19T02:36:21;99787.41;;;14.75;58.88
76858;BME280;65830;0.000;0.000;2023-05-19T02:38:46;99777.72;;;14.74;58.82
76858;BME280;65830;0.000;0.000;2023-05-19T02:41:12;99771.84;;;14.70;58.87
76858;BME280;65830;0.000;0.000;2023-05-19T02:43:38;99774.53;;;14.70;59.14
76858;BME280;65830;0.000;0.000;2023-05-19T02:46:03;99771.19;;;14.68;59.25
76858;BME280;65830;0.000;0.000;2023-05-19T02:48:29;99778.38;;;14.67;59.15
76858;BME280;65830;0.000;0.000;2023-05-19T02:50:54;99777.69;;;14.65;59.11
76858;BME280;65830;0.000;0.000;2023-05-19T02:53:20;99773.34;;;14.64;59.37
76858;BME280;65830;0.000;0.000;2023-05-19T02:55:45;99782.66;;;14.60;59.33
76858;BME280;65830;0.000;0.000;2023-05-19T02:58:11;99772.66;;;14.62;59.58
76858;BME280;65830;0.000;0.000;2023-05-19T03:00:37;99781.34;;;14.64;59.27
76858;BME280;65830;0.000;0.000;2023-05-19T03:03:02;99780.53;;;14.64;59.27
76858;BME280;65830;0.000;0.000;2023-05-19T03:05:30;99784.00;;;14.64;59.37
76858;BME280;65830;0.000;0.000;2023-05-19T03:07:55;99785.84;;;14.64;59.55
76858;BME280;65830;0.000;0.000;2023-05-19T03:10:21;99790.53;;;14.62;59.34
76858;BME280;65830;0.000;0.000;2023-05-19T03:12:47;99793.88;;;14.64;59.57
76858;BME280;65830;0.000;0.000;2023-05-19T03:15:12;99793.19;;;14.62;59.47
76858;BME280;65830;0.000;0.000;2023-05-19T03:17:39;99790.38;;;14.63;59.57
76858;BME280;65830;0.000;0.000;2023-05-19T03:20:05;99806.41;;;14.63;59.62
76858;BME280;65830;0.000;0.000;2023-05-19T03:22:31;99796.69;;;14.62;59.68
76858;BME280;65830;0.000;0.000;2023-05-19T03:24:57;99786.19;;;14.61;59.70
76858;BME280;65830;0.000;0.000;2023-05-19T03:27:23;99786.34;;;14.59;59.91
76858;BME280;65830;0.000;0.000;2023-05-19T03:29:48;99796.69;;;14.62;59.68
76858;BME280;65830;0.000;0.000;2023-05-19T03:32:14;99804.72;;;14.62;59.79
76858;BME280;65830;0.000;0.000;2023-05-19T03:34:40;99804.25;;;14.67;59.69
76858;BME280;65830;0.000;0.000;2023-05-19T03:37:06;99810.41;;;14.67;59.55
76858;BME280;65830;0.000;0.000;2023-05-19T03:39:33;99814.94;;;14.67;59.67
76858;BME280;65830;0.000;0.000;2023-05-19T03:41:58;99806.06;;;14.66;59.68
76858;BME280;65830;0.000;0.000;2023-05-19T03:44:24;99820.09;;;14.68;59.83
76858;BME280;65830;0.000;0.000;2023-05-19T03:46:51;99827.78;;;14.72;59.71
76858;BME280;65830;0.000;0.000;2023-05-19T03:49:16;99825.78;;;14.74;59.69
76858;BME280;65830;0.000;0.000;2023-05-19T03:52:00;99807.75;;;14.76;59.47
76858;BME280;65830;0.000;0.000;2023-05-19T03:54:50;99817.47;;;14.77;59.30
76858;BME280;65830;0.000;0.000;2023-05-19T03:57:18;99806.97;;;14.83;59.13
76858;BME280;65830;0.000;0.000;2023-05-19T03:59:46;99813.28;;;14.82;59.30
76858;BME280;65830;0.000;0.000;2023-05-19T04:02:11;99809.63;;;14.83;59.16
76858;BME280;65830;0.000;0.000;2023-05-19T04:04:37;99818.31;;;14.85;59.31
76858;BME280;65830;0.000;0.000;2023-05-19T04:07:02;99823.13;;;14.82;59.30
76858;BME280;65830;0.000;0.000;2023-05-19T04:09:28;99828.16;;;14.85;59.18
76858;BME280;65830;0.000;0.000;2023-05-19T04:11:56;99828.84;;;14.87;59.25
76858;BME280;65830;0.000;0.000;2023-05-19T04:14:22;99824.03;;;14.91;59.15
76858;BME280;65830;0.000;0.000;2023-05-19T04:16:48;99823.50;;;14.87;59.04
76858;BME280;65830;0.000;0.000;2023-05-19T04:19:14;99820.19;;;14.93;59.05
76858;BME280;65830;0.000;0.000;2023-05-19T04:21:40;99834.72;;;14.99;58.70
76858;BME280;65830;0.000;0.000;2023-05-19T04:24:05;99822.19;;;14.99;58.76
76858;BME280;65830;0.000;0.000;2023-05-19T04:26:31;99824.53;;;15.02;58.68
76858;BME280;65830;0.000;0.000;2023-05-19T04:28:58;99826.53;;;15.00;58.69
76858;BME280;65830;0.000;0.000;2023-05-19T04:31:24;99830.56;;;15.04;58.90
76858;BME280;65830;0.000;0.000;2023-05-19T04:33:51;99838.59;;;15.04;58.64
76858;BME280;65830;0.000;0.000;2023-05-19T04:36:17;99839.75;;;15.10;58.86
76858;BME280;65830;0.000;0.000;2023-05-19T04:38:46;99843.59;;;15.16;58.63
76858;BME280;65830;0.000;0.000;2023-05-19T04:41:13;99843.28;;;15.19;58.42
76858;BME280;65830;0.000;0.000;2023-05-19T04:43:40;99848.63;;;15.19;58.59
76858;BME280;65830;0.000;0.000;2023-05-19T04:46:11;99843.94;;;15.21;58.53
76858;BME280;65830;0.000;0.000;2023-05-19T04:48:38;99842.63;;;15.25;58.52
76858;BME280;65830;0.000;0.000;2023-05-19T04:51:06;99850.97;;;15.30;58.59
76858;BME280;65830;0.000;0.000;2023-05-19T04:53:32;99855.00;;;15.34;58.21
76858;BME280;65830;0.000;0.000;2023-05-19T04:55:58;99856.16;;;15.40;58.28
76858;BME280;65830;0.000;0.000;2023-05-19T04:58:29;99859.34;;;15.52;58.39
76858;BME280;65830;0.000;0.000;2023-05-19T05:00:55;99862.22;;;15.58;57.98
76858;BME280;65830;0.000;0.000;2023-05-19T05:03:21;99862.72;;;15.62;57.98
76858;BME280;65830;0.000;0.000;2023-05-19T05:05:50;99867.06;;;15.71;57.65
76858;BME280;65830;0.000;0.000;2023-05-19T05:08:16;99865.75;;;15.75;57.33
76858;BME280;65830;0.000;0.000;2023-05-19T05:10:51;99862.41;;;15.81;57.50
76858;BME280;65830;0.000;0.000;2023-05-19T05:13:21;99870.59;;;15.88;57.35
76858;BME280;65830;0.000;0.000;2023-05-19T05:15:53;99864.06;;;15.91;57.25
76858;BME280;65830;0.000;0.000;2023-05-19T05:18:21;99865.25;;;15.96;57.03
76858;BME280;65830;0.000;0.000;2023-05-19T05:20:47;99865.75;;;16.00;56.83
76858;BME280;65830;0.000;0.000;2023-05-19T05:23:13;99867.91;;;16.04;57.03
76858;BME280;65830;0.000;0.000;2023-05-19T05:25:42;99869.06;;;16.10;56.91
76858;BME280;65830;0.000;0.000;2023-05-19T05:28:09;99866.72;;;16.15;56.90
76858;BME280;65830;0.000;0.000;2023-05-19T05:30:36;99861.03;;;16.18;56.73
76858;BME280;65830;0.000;0.000;2023-05-19T05:33:03;99874.91;;;16.22;56.67
76858;BME280;65830;0.000;0.000;2023-05-19T05:35:32;99873.41;;;16.27;56.65
76858;BME280;65830;0.000;0.000;2023-05-19T05:37:58;99870.38;;;16.31;56.58
76858;BME280;65830;0.000;0.000;2023-05-19T05:40:24;99876.88;;;16.36;56.79
76858;BME280;65830;0.000;0.000;2023-05-19T05:42:50;99885.72;;;16.45;56.40
76858;BME280;65830;0.000;0.000;2023-05-19T05:45:19;99886.56;;;16.45;56.38
76858;BME280;65830;0.000;0.000;2023-05-19T05:47:44;99892.59;;;16.47;56.47
76858;BME280;65830;0.000;0.000;2023-05-19T05:50:12;99887.91;;;16.50;56.44
76858;BME280;65830;0.000;0.000;2023-05-19T05:52:38;99889.41;;;16.52;56.28
76858;BME280;65830;0.000;0.000;2023-05-19T05:55:05;99886.19;;;16.57;56.27
76858;BME280;65830;0.000;0.000;2023-05-19T05:57:32;99894.69;;;16.68;55.89
76858;BME280;65830;0.000;0.000;2023-05-19T06:00:01;99891.19;;;16.68;56.34
76858;BME280;65830;0.000;0.000;2023-05-19T06:02:28;99896.69;;;16.75;56.02
76858;BME280;65830;0.000;0.000;2023-05-19T06:04:56;99895.69;;;16.76;56.13
76858;BME280;65830;0.000;0.000;2023-05-19T06:07:22;99897.69;;;16.82;56.50
76858;BME280;65830;0.000;0.000;2023-05-19T06:09:48;99899.50;;;16.90;56.18
76858;BME280;65830;0.000;0.000;2023-05-19T06:12:14;99906.38;;;16.92;55.96
76858;BME280;65830;0.000;0.000;2023-05-19T06:14:44;99915.72;;;16.96;56.31
76858;BME280;65830;0.000;0.000;2023-05-19T06:17:18;99915.56;;;16.98;55.94
76858;BME280;65830;0.000;0.000;2023-05-19T06:19:44;99923.59;;;16.98;56.04
76858;BME280;65830;0.000;0.000;2023-05-19T06:22:09;99922.06;;;17.03;56.23
76858;BME280;65830;0.000;0.000;2023-05-19T06:24:35;99923.25;;;17.01;55.83
76858;BME280;65830;0.000;0.000;2023-05-19T06:27:00;99924.44;;;16.98;56.00
76858;BME280;65830;0.000;0.000;2023-05-19T06:29:26;99922.41;;;17.00;56.36
76858;BME280;65830;0.000;0.000;2023-05-19T06:31:53;99928.75;;;17.07;56.36
76858;BME280;65830;0.000;0.000;2023-05-19T06:34:19;99930.44;;;17.09;56.19
76858;BME280;65830;0.000;0.000;2023-05-19T06:36:45;99929.25;;;17.11;56.19
76858;BME280;65830;0.000;0.000;2023-05-19T06:39:12;99929.53;;;17.16;56.39
76858;BME280;65830;0.000;0.000;2023-05-19T06:41:37;99931.00;;;17.27;56.36
76858;BME280;65830;0.000;0.000;2023-05-19T06:44:05;99927.78;;;17.32;56.37
76858;BME280;65830;0.000;0.000;2023-05-19T06:46:32;99927.94;;;17.38;56.72
76858;BME280;65830;0.000;0.000;2023-05-19T06:48:57;99926.38;;;17.44;56.29
76858;BME280;65830;0.000;0.000;2023-05-19T06:51:25;99925.88;;;17.49;56.48
76858;BME280;65830;0.000;0.000;2023-05-19T06:53:54;99932.53;;;17.53;55.81
76858;BME280;65830;0.000;0.000;2023-05-19T06:56:21;99913.69;;;17.61;55.38
76858;BME280;65830;0.000;0.000;2023-05-19T06:58:47;99921.63;;;17.77;55.32
76858;BME280;65830;0.000;0.000;2023-05-19T07:01:13;99918.78;;;17.79;55.30
76858;BME280;65830;0.000;0.000;2023-05-19T07:03:44;99924.59;;;17.91;54.90
76858;BME280;65830;0.000;0.000;2023-05-19T07:06:11;99916.84;;;17.96;54.52
76858;BME280;65830;0.000;0.000;2023-05-19T07:08:36;99917.28;;;17.99;55.22
76858;BME280;65830;0.000;0.000;2023-05-19T07:11:04;99917.41;;;18.06;54.94
76858;BME280;65830;0.000;0.000;2023-05-19T07:13:29;99913.44;;;18.17;54.92
76858;BME280;65830;0.000;0.000;2023-05-19T07:15:57;99911.88;;;18.22;55.15
76858;BME280;65830;0.000;0.000;2023-05-19T07:18:24;99910.31;;;18.28;54.98
76858;BME280;65830;0.000;0.000;2023-05-19T07:20:51;99916.44;;;18.37;54.92
76858;BME280;65830;0.000;0.000;2023-05-19T07:23:17;99909.69;;;18.41;54.86
76858;BME280;65830;0.000;0.000;2023-05-19T07:25:44;99901.53;;;18.49;54.61
76858;BME280;65830;0.000;0.000;2023-05-19T07:28:10;99908.41;;;18.66;54.61
76858;BME280;65830;0.000;0.000;2023-05-19T07:30:35;99911.84;;;18.75;54.50
76858;BME280;65830;0.000;0.000;2023-05-19T07:33:01;99916.69;;;18.80;54.44
76858;BME280;65830;0.000;0.000;2023-05-19T07:35:27;99913.06;;;18.88;54.39
76858;BME280;65830;0.000;0.000;2023-05-19T07:37:53;99919.91;;;18.90;53.68
76858;BME280;65830;0.000;0.000;2023-05-19T07:40:18;99921.09;;;19.02;53.10
76858;BME280;65830;0.000;0.000;2023-05-19T07:42:44;99913.78;;;18.96;52.91
76858;BME280;65830;0.000;0.000;2023-05-19T07:45:10;99915.38;;;19.05;52.64
76858;BME280;65830;0.000;0.000;2023-05-19T07:47:35;99921.84;;;19.11;52.51
76858;BME280;65830;0.000;0.000;2023-05-19T07:50:03;99924.25;;;19.06;52.09
76858;BME280;65830;0.000;0.000;2023-05-19T07:52:29;99919.69;;;19.07;52.88
76858;BME280;65830;0.000;0.000;2023-05-19T07:54:54;99926.00;;;19.14;52.88
76858;BME280;65830;0.000;0.000;2023-05-19T07:57:20;99917.81;;;19.22;52.66
76858;BME280;65830;0.000;0.000;2023-05-19T07:59:46;99917.59;;;19.38;53.11
76858;BME280;65830;0.000;0.000;2023-05-19T08:02:11;99920.75;;;19.42;52.58
76858;BME280;65830;0.000;0.000;2023-05-19T08:04:37;99927.16;;;19.41;52.11
76858;BME280;65830;0.000;0.000;2023-05-19T08:07:02;99935.06;;;19.42;52.81
76858;BME280;65830;0.000;0.000;2023-05-19T08:09:28;99938.19;;;19.46;51.58
76858;BME280;65830;0.000;0.000;2023-05-19T08:11:53;99938.38;;;19.44;52.11
76858;BME280;65830;0.000;0.000;2023-05-19T08:14:19;99939.41;;;19.43;51.90
76858;BME280;65830;0.000;0.000;2023-05-19T08:16:47;99939.56;;;19.42;52.48
76858;BME280;65830;0.000;0.000;2023-05-19T08:19:13;99940.88;;;19.46;51.59
76858;BME280;65830;0.000;0.000;2023-05-19T08:21:38;99942.16;;;19.50;51.31
76858;BME280;65830;0.000;0.000;2023-05-19T08:24:04;99937.41;;;19.52;51.64
76858;BME280;65830;0.000;0.000;2023-05-19T08:26:30;99937.41;;;19.52;51.70
76858;BME280;65830;0.000;0.000;2023-05-19T08:28:55;99936.47;;;19.60;51.90
76858;BME280;65830;0.000;0.000;2023-05-19T08:31:21;99925.38;;;19.70;50.68
76858;BME280;65830;0.000;0.000;2023-05-19T08:33:47;99931.25;;;19.73;50.95
76858;BME280;65830;0.000;0.000;2023-05-19T08:36:12;99941.91;;;19.81;50.30
76858;BME280;65830;0.000;0.000;2023-05-19T08:38:38;99934.44;;;19.83;49.86
76858;BME280;65830;0.000;0.000;2023-05-19T08:41:03;99935.09;;;19.86;50.54
76858;BME280;65830;0.000;0.000;2023-05-19T08:43:30;99933.03;;;19.88;50.37
76858;BME280;65830;0.000;0.000;2023-05-19T08:45:55;99933.53;;;19.98;50.67
76858;BME280;65830;0.000;0.000;2023-05-19T08:48:23;99934.06;;;20.08;49.32
76858;BME280;65830;0.000;0.000;2023-05-19T08:51:12;99937.72;;;20.00;49.29
76858;BME280;65830;0.000;0.000;2023-05-19T08:53:39;99936.94;;;20.07;49.86
76858;BME280;65830;0.000;0.000;2023-05-19T08:56:07;99933.66;;;20.11;49.37
76858;BME280;65830;0.000;0.000;2023-05-19T08:58:38;99931.88;;;20.18;49.95
76858;BME280;65830;0.000;0.000;2023-05-19T09:01:06;99930.69;;;20.28;49.86
76858;BME280;65830;0.000;0.000;2023-05-19T09:03:34;99930.56;;;20.36;49.50
76858;BME280;65830;0.000;0.000;2023-05-19T09:06:04;99926.00;;;20.36;50.25
76858;BME280;65830;0.000;0.000;2023-05-19T09:08:30;99931.84;;;20.40;48.47
76858;BME280;65830;0.000;0.000;2023-05-19T09:10:55;99919.63;;;20.44;48.48
76858;BME280;65830;0.000;0.000;2023-05-19T09:13:21;99928.38;;;20.53;48.52
76858;BME280;65830;0.000;0.000;2023-05-19T09:15:46;99920.28;;;20.53;47.78
76858;BME280;65830;0.000;0.000;2023-05-19T09:18:13;99927.63;;;20.59;47.92
76858;BME280;65830;0.000;0.000;2023-05-19T09:20:40;99927.91;;;20.71;46.89
76858;BME280;65830;0.000;0.000;2023-05-19T09:23:06;99929.34;;;20.67;46.75
76858;BME280;65830;0.000;0.000;2023-05-19T09:25:32;99914.19;;;20.66;47.40
76858;BME280;65830;0.000;0.000;2023-05-19T09:27:58;99908.88;;;20.79;47.48
76858;BME280;65830;0.000;0.000;2023-05-19T09:30:23;99919.25;;;20.82;47.98
76858;BME280;65830;0.000;0.000;2023-05-19T09:32:50;99918.06;;;20.91;47.50
76858;BME280;65830;0.000;0.000;2023-05-19T09:35:15;99923.47;;;20.91;46.32
76858;BME280;65830;0.000;0.000;2023-05-19T09:37:41;99928.44;;;20.94;47.69
76858;BME280;65830;0.000;0.000;2023-05-19T09:40:08;99914.56;;;20.97;46.17
76858;BME280;65830;0.000;0.000;2023-05-19T09:42:37;99909.63;;;21.01;47.38
76858;BME280;65830;0.000;0.000;2023-05-19T09:45:03;99909.63;;;21.08;49.47
76858;BME280;65830;0.000;0.000;2023-05-19T09:47:39;99905.94;;;21.15;46.92
76858;BME280;65830;0.000;0.000;2023-05-19T09:50:06;99910.72;;;21.20;50.13
76858;BME280;65830;0.000;0.000;2023-05-19T09:52:41;99905.31;;;21.20;49.39
76858;BME280;65830;0.000;0.000;2023-05-19T09:55:08;99910.09;;;21.18;50.00
76858;BME280;65830;0.000;0.000;2023-05-19T09:57:34;99909.69;;;21.21;50.03
76858;BME280;65830;0.000;0.000;2023-05-19T10:00:03;99909.28;;;21.24;49.28
76858;BME280;65830;0.000;0.000;2023-05-19T10:02:38;99900.78;;;21.27;49.10
76858;BME280;65830;0.000;0.000;2023-05-19T10:05:05;99902.44;;;21.28;49.60
76858;BME280;65830;0.000;0.000;2023-05-19T10:07:31;99903.69;;;21.26;50.77
76858;BME280;65830;0.000;0.000;2023-05-19T10:09:57;99910.09;;;21.25;49.85
76858;BME280;65830;0.000;0.000;2023-05-19T10:12:24;99903.25;;;21.29;49.66
76858;BME280;65830;0.000;0.000;2023-05-19T10:14:50;99905.38;;;21.40;48.83
76858;BME280;65830;0.000;0.000;2023-05-19T10:17:19;99900.03;;;21.47;50.23
76858;BME280;65830;0.000;0.000;2023-05-19T10:19:44;99899.81;;;21.48;49.45
76858;BME280;65830;0.000;0.000;2023-05-19T10:22:12;99897.34;;;21.47;48.75
76858;BME280;65830;0.000;0.000;2023-05-19T10:24:37;99892.13;;;21.45;49.09
76858;BME280;65830;0.000;0.000;2023-05-19T10:27:04;99890.88;;;21.48;49.51
76858;BME280;65830;0.000;0.000;2023-05-19T10:29:32;99884.66;;;21.47;48.52
76858;BME280;65830;0.000;0.000;2023-05-19T10:32:00;99881.16;;;21.53;48.23
76858;BME280;65830;0.000;0.000;2023-05-19T10:37:15;99887.59;;;21.66;46.03
76858;BME280;65830;0.000;0.000;2023-05-19T10:39:42;99882.19;;;21.72;45.79
76858;BME280;65830;0.000;0.000;2023-05-19T10:42:15;99880.75;;;21.83;46.04
76858;BME280;65830;0.000;0.000;2023-05-19T10:47:28;99878.28;;;21.95;47.62
76858;BME280;65830;0.000;0.000;2023-05-19T10:49:54;99878.47;;;21.93;45.47
76858;BME280;65830;0.000;0.000;2023-05-19T10:52:20;99880.13;;;21.88;49.99
76858;BME280;65830;0.000;0.000;2023-05-19T10:54:47;99887.00;;;21.90;51.12
76858;BME280;65830;0.000;0.000;2023-05-19T10:57:13;99882.00;;;21.94;49.67
76858;BME280;65830;0.000;0.000;2023-05-19T10:59:39;99888.84;;;21.90;49.23
76858;BME280;65830;0.000;0.000;2023-05-19T11:02:04;99888.03;;;21.96;49.87
76858;BME280;65830;0.000;0.000;2023-05-19T11:04:47;99896.34;;;22.01;49.64
76858;BME280;65830;0.000;0.000;2023-05-19T11:07:16;99888.25;;;22.14;45.39
76858;BME280;65830;0.000;0.000;2023-05-19T11:09:41;99894.09;;;22.25;49.69
76858;BME280;65830;0.000;0.000;2023-05-19T11:12:07;99908.63;;;22.30;50.76
76858;BME280;65830;0.000;0.000;2023-05-19T11:14:34;99897.16;;;22.21;46.64
76858;BME280;65830;0.000;0.000;2023-05-19T11:17:00;99903.41;;;22.02;45.40
76858;BME280;65830;0.000;0.000;2023-05-19T11:19:26;99890.75;;;21.83;44.00
76858;BME280;65830;0.000;0.000;2023-05-19T11:21:52;99894.47;;;21.81;45.80
76858;BME280;65830;0.000;0.000;2023-05-19T11:27:45;99894.06;;;21.98;48.66
76858;BME280;65830;0.000;0.000;2023-05-19T11:29:46;99878.91;;;22.10;45.89
76858;BME280;65830;0.000;0.000;2023-05-19T11:32:12;99874.09;;;22.26;47.71
76858;BME280;65830;0.000;0.000;2023-05-19T11:34:38;99893.00;;;22.52;48.72
76858;BME280;65830;0.000;0.000;2023-05-19T11:37:04;99899.41;;;22.65;42.87
76858;BME280;65830;0.000;0.000;2023-05-19T11:39:46;99899.31;;;22.98;45.45
76858;BME280;65830;0.000;0.000;2023-05-19T11:42:12;99875.31;;;23.22;45.22
76858;BME280;65830;0.000;0.000;2023-05-19T11:44:38;99877.38;;;24.15;40.94
76858;BME280;65830;0.000;0.000;2023-05-19T11:47:05;99872.31;;;24.81;40.98
76858;BME280;65830;0.000;0.000;2023-05-19T11:49:31;99880.88;;;25.45;39.15
76858;BME280;65830;0.000;0.000;2023-05-19T11:51:56;99865.22;;;26.12;42.62
76858;BME280;65830;0.000;0.000;2023-05-19T11:54:28;99876.78;;;26.79;40.95
76858;BME280;65830;0.000;0.000;2023-05-19T11:56:54;99865.78;;;27.43;35.23
76858;BME280;65830;0.000;0.000;2023-05-19T11:59:27;99870.53;;;27.64;40.79
76858;BME280;65830;0.000;0.000;2023-05-19T12:01:53;99864.13;;;28.43;36.17
76858;BME280;65830;0.000;0.000;2023-05-19T12:04:18;99858.47;;;28.89;33.66
76858;BME280;65830;0.000;0.000;2023-05-19T12:06:44;99868.47;;;29.27;36.03
76858;BME280;65830;0.000;0.000;2023-05-19T12:09:12;99861.69;;;29.89;36.09
76858;BME280;65830;0.000;0.000;2023-05-19T12:11:38;99860.53;;;29.53;35.98
76858;BME280;65830;0.000;0.000;2023-05-19T12:14:04;99851.31;;;27.88;36.58
76858;BME280;65830;0.000;0.000;2023-05-19T12:16:33;99849.66;;;27.12;34.97
76858;BME280;65830;0.000;0.000;2023-05-19T12:18:59;99855.00;;;28.16;34.86
76858;BME280;65830;0.000;0.000;2023-05-19T12:21:25;99853.00;;;28.67;38.13
76858;BME280;65830;0.000;0.000;2023-05-19T12:23:50;99857.66;;;29.38;38.00
76858;BME280;65830;0.000;0.000;2023-05-19T12:26:16;99852.50;;;30.48;32.54
76858;BME280;65830;0.000;0.000;2023-05-19T12:28:46;99855.56;;;30.15;32.18
76858;BME280;65830;0.000;0.000;2023-05-19T12:31:12;99850.44;;;30.28;33.58
76858;BME280;65830;0.000;0.000;2023-05-19T12:33:37;99841.44;;;29.58;34.64
76858;BME280;65830;0.000;0.000;2023-05-19T12:36:03;99834.78;;;29.49;32.61
76858;BME280;65830;0.000;0.000;2023-05-19T12:38:29;99842.50;;;29.52;33.44
76858;BME280;65830;0.000;0.000;2023-05-19T12:40:57;99833.19;;;29.53;31.46
76858;BME280;65830;0.000;0.000;2023-05-19T12:43:22;99832.66;;;29.24;34.15
76858;BME280;65830;0.000;0.000;2023-05-19T12:45:48;99829.75;;;29.08;32.75
76858;BME280;65830;0.000;0.000;2023-05-19T12:48:14;99825.91;;;28.82;32.91
76858;BME280;65830;0.000;0.000;2023-05-19T12:50:40;99829.34;;;28.33;36.23
76858;BME280;65830;0.000;0.000;2023-05-19T12:53:12;99825.72;;;28.67;31.62
76858;BME280;65830;0.000;0.000;2023-05-19T12:55:41;99823.63;;;28.35;33.17
76858;BME280;65830;0.000;0.000;2023-05-19T12:58:07;99822.84;;;28.18;33.39
76858;BME280;65830;0.000;0.000;2023-05-19T13:00:33;99816.34;;;28.02;34.75
76858;BME280;65830;0.000;0.000;2023-05-19T13:03:05;99817.25;;;28.07;32.07
76858;BME280;65830;0.000;0.000;2023-05-19T13:05:31;99809.50;;;27.99;34.85
76858;BME280;65830;0.000;0.000;2023-05-19T13:08:03;99811.78;;;28.07;33.37
76858;BME280;65830;0.000;0.000;2023-05-19T13:10:29;99814.19;;;28.21;33.88
76858;BME280;65830;0.000;0.000;2023-05-19T13:12:56;99812.03;;;28.23;35.82
76858;BME280;65830;0.000;0.000;2023-05-19T13:15:22;99819.00;;;28.36;35.17
76858;BME280;65830;0.000;0.000;2023-05-19T13:17:49;99819.69;;;28.48;35.42
76858;BME280;65830;0.000;0.000;2023-05-19T13:20:18;99815.56;;;28.84;32.52
76858;BME280;65830;0.000;0.000;2023-05-19T13:22:46;99821.31;;;28.88;33.97
76858;BME280;65830;0.000;0.000;2023-05-19T13:25:12;99816.00;;;29.25;33.44
76858;BME280;65830;0.000;0.000;2023-05-19T13:27:38;99812.22;;;29.31;33.59
76858;BME280;65830;0.000;0.000;2023-05-19T13:30:05;99806.72;;;29.26;31.31
76858;BME280;65830;0.000;0.000;2023-05-19T13:32:30;99816.09;;;29.36;32.27
76858;BME280;65830;0.000;0.000;2023-05-19T13:34:56;99814.44;;;29.35;33.26
76858;BME280;65830;0.000;0.000;2023-05-19T13:37:22;99819.81;;;28.36;34.41
76858;BME280;65830;0.000;0.000;2023-05-19T13:39:48;99818.06;;;27.74;33.84